Flight Track Log - Related Links

Times and Time Zones

All times are in EDT time to prevent confusion due to time zone crossing. See the SWA1668 flight status page for this flight to view local times or setup timezone preferences in your user account.

Time Position Orientation Groundspeed Altitude Reporting Facility
EDT Latitude Longitude Course Direction KTS MPH feet Rate Location/Type
Wed 10:48:55 PM 37.7167 -122.2500 310° West 155 178 1,100  Level Northern Cal TRACON
Wed 10:49:55 PM 37.7500 -122.3000 310° West 202 232 3,100 1,833 Climbing Northern Cal TRACON
Wed 10:50:43 PM 37.7933 -122.3006 359° North 229 264 4,400 2,807 Climbing Oakland Center
Wed 10:51:44 PM 37.8486 -122.2397 41° Northeast 262 302 8,200 3,393 Climbing Oakland Center
Wed 10:52:45 PM 37.9067 -122.1733 42° Northeast 277 319 11,300 3,049 Climbing Oakland Center
Wed 10:53:46 PM 37.9911 -122.0764 42° Northeast 345 397 14,400 3,073 Climbing Oakland Center
Wed 10:54:48 PM 38.0669 -121.9878 43° Northeast 369 425 17,600 3,073 Climbing Oakland Center
Wed 10:55:49 PM 38.1464 -121.8956 42° Northeast 383 441 20,700 2,803 Climbing Oakland Center
Wed 10:56:50 PM 38.2150 -121.7917 50° Northeast 388 447 23,300 2,361 Climbing Oakland Center
Wed 10:57:51 PM 38.2614 -121.6592 66° East 410 472 25,500 2,066 Climbing Oakland Center
Wed 10:58:52 PM 38.3094 -121.5253 65° Northeast 416 479 27,500 2,016 Climbing Oakland Center
Wed 10:59:53 PM 38.3631 -121.3758 65° Northeast 429 494 29,600 2,213 Climbing Oakland Center
Wed 11:00:54 PM 38.4111 -121.2392 66° East 431 496 32,000 2,311 Climbing Oakland Center
Wed 11:01:55 PM 38.4569 -121.1092 66° East 416 479 34,300 1,967 Climbing Oakland Center
Wed 11:02:56 PM 38.5028 -120.9797 66° East 405 466 36,000 1,180 Climbing Oakland Center
Wed 11:03:57 PM 38.5483 -120.8500 66° East 406 467 36,700 492 Climbing Oakland Center
Wed 11:04:58 PM 38.5964 -120.7122 66° East 424 488 37,000 146 Climbing Oakland Center
Wed 11:06:00 PM 38.6536 -120.5456 66° East 427 491 37,000  Level Oakland Center
Wed 11:07:01 PM 38.7017 -120.4067 66° East 427 491 37,000  Level Oakland Center
Wed 11:08:02 PM 38.7478 -120.2706 66° East 419 482 37,000  Level Oakland Center
Wed 11:09:03 PM 38.7969 -120.1350 65° Northeast 421 484 37,000  Level Oakland Center
Wed 11:10:04 PM 38.8447 -119.9983 66° East 422 486 37,000  Level Oakland Center
Wed 11:11:05 PM 38.8942 -119.8647 65° Northeast 415 478 37,000 148 Level Oakland Center
Wed 11:12:06 PM 38.9458 -119.7242 65° Northeast 418 481 37,300 639 Climbing Oakland Center
Wed 11:13:07 PM 38.9958 -119.5836 65° Northeast 431 496 38,300 836 Climbing Oakland Center
Wed 11:14:08 PM 39.0467 -119.4444 65° Northeast 430 495 39,000 344 Climbing Oakland Center
Wed 11:15:09 PM 39.0964 -119.3047 65° Northeast 429 494 39,000  Level Oakland Center
Wed 11:16:11 PM 39.1475 -119.1653 65° Northeast 430 495 39,000  Level Oakland Center
Wed 11:17:12 PM 39.1975 -119.0264 65° Northeast 429 494 39,000  Level Oakland Center
Wed 11:18:13 PM 39.2558 -118.8636 65° Northeast 432 497 39,000  Level Oakland Center
Wed 11:19:14 PM 39.3064 -118.7225 65° Northeast 434 499 39,000  Level Oakland Center
Wed 11:20:15 PM 39.3561 -118.5797 66° East 436 502 39,000  Level Oakland Center
Wed 11:21:16 PM 39.4069 -118.4350 66° East 439 505 39,000  Level Oakland Center
Wed 11:22:17 PM 39.4561 -118.2978 65° Northeast 441 507 39,000  Level Oakland Center
Wed 11:23:18 PM 39.5067 -118.1525 66° East 444 511 39,000  Level Oakland Center
Wed 11:24:19 PM 39.5561 -118.0103 66° East 438 504 39,000  Level Oakland Center
Wed 11:25:20 PM 39.6042 -117.8694 66° East 430 495 39,000  Level Oakland Center
Wed 11:26:21 PM 39.6536 -117.7275 66° East 431 496 39,000  Level Oakland Center
Wed 11:27:22 PM 39.7106 -117.5575 66° East 429 494 39,000  Level Oakland Center
Wed 11:28:23 PM 39.7558 -117.4236 66° East 427 491 39,000  Level Oakland Center
Wed 11:29:19 PM 39.8019 -117.2897 66° East 424 488 39,000  Level Salt Lake Center
Wed 11:30:20 PM 39.8467 -117.1564 66° East 422 486 39,000  Level Salt Lake Center
Wed 11:31:26 PM 39.8989 -117.0017 66° East 423 487 39,000  Level Oakland Center
Wed 11:32:27 PM 39.9433 -116.8675 67° East 424 488 39,000  Level Oakland Center
Wed 11:33:28 PM 39.9950 -116.7106 67° East 425 489 39,000  Level Oakland Center
Wed 11:34:29 PM 40.0397 -116.5750 67° East 427 491 39,000  Level Oakland Center
Wed 11:35:30 PM 40.0922 -116.4161 67° East 429 494 39,000  Level Oakland Center
Wed 11:36:27 PM 40.1369 -116.2767 67° East 432 497 39,000  Level Salt Lake Center
Wed 11:37:29 PM 40.1833 -116.1392 66° East 433 498 39,000  Level Salt Lake Center
Wed 11:38:30 PM 40.2278 -115.9978 68° East 441 507 39,000  Level Salt Lake Center
Wed 11:39:31 PM 40.2803 -115.8342 67° East 439 505 39,000  Level Salt Lake Center
Wed 11:40:32 PM 40.3278 -115.6944 66° East 440 506 39,000  Level Salt Lake Center
Wed 11:41:33 PM 40.3789 -115.5336 67° East 433 498 39,000  Level Salt Lake Center
Wed 11:42:35 PM 40.4231 -115.3964 67° East 429 494 39,000  Level Salt Lake Center
Wed 11:43:36 PM 40.4656 -115.2589 68° East 426 490 39,000  Level Salt Lake Center
Wed 11:44:37 PM 40.5131 -115.0981 69° East 424 488 39,000  Level Salt Lake Center
Wed 11:45:38 PM 40.5583 -114.9608 66° East 427 491 39,000  Level Salt Lake Center
Wed 11:46:39 PM 40.6028 -114.8222 67° East 427 491 39,000  Level Salt Lake Center
Wed 11:47:41 PM 40.6533 -114.6531 68° East 430 495 39,000  Level Salt Lake Center
Wed 11:48:42 PM 40.6969 -114.5053 69° East 433 498 39,000  Level Salt Lake Center
Wed 11:49:43 PM 40.7058 -114.3467 86° East 436 502 39,000 -344 Level Salt Lake Center
Wed 11:50:44 PM 40.7114 -114.1883 87° East 436 502 38,300 -1,672 Descending Salt Lake Center
Wed 11:51:45 PM 40.7175 -114.0333 87° East 429 494 35,600 -2,732 Descending Salt Lake Center
Wed 11:52:47 PM 40.7211 -113.8817 88° East 418 481 32,700 -2,537 Descending Salt Lake Center
Wed 11:53:48 PM 40.7269 -113.7347 87° East 408 470 30,400 -2,164 Descending Salt Lake Center
Wed 11:54:49 PM 40.7264 -113.5911 90° East 395 455 28,300 -2,115 Descending Salt Lake Center
Wed 11:55:50 PM 40.7256 -113.4533 90° East 383 441 26,100 -2,262 Descending Salt Lake Center
Wed 11:56:51 PM 40.7267 -113.2903 89° East 374 430 23,700 -2,262 Descending Salt Lake Center
Wed 11:57:52 PM 40.7236 -113.1511 92° East 380 437 21,500 -2,049 Descending Salt Lake Center
Wed 11:58:54 PM 40.7233 -113.0164 90° East 369 425 19,500 -1,959 Descending Salt Lake Center
Wed 11:59:30 PM 40.7269 -112.9419 86° East 363 418 18,300 -1,967 Descending Salt Lake Center
Wed 11:59:55 PM 40.7225 -112.8875 96° East 355 409 17,500 -1,083 Descending Salt Lake Center
Thu 12:00:42 AM 40.7258 -112.7869 87° East 348 400 17,000 -263 Descending Salt Lake Center
Thu 12:01:49 AM 40.7222 -112.6442 92° East 343 395 17,000 -246 Level Salt Lake Center
Thu 12:02:44 AM 40.7217 -112.5397 90° East 338 389 16,500 -1,304 Descending Salt Lake Center
Thu 12:03:44 AM 40.7406 -112.4147 79° East 321 369 14,500 -1,934 Descending Salt Lake Center
Thu 12:04:45 AM 40.7581 -112.3044 78° East 316 364 12,600 -1,279 Descending Salt Lake Center
Thu 12:05:46 AM 40.7658 -112.2000 84° East 282 325 11,900 -843 Descending Salt Lake Center
Thu 12:06:46 AM 40.7567 -112.1094 98° East 239 275 10,900 -1,140 Descending Salt Lake Center
Thu 12:07:47 AM 40.6956 -112.0822 161° South 263 303 9,600 -1,266 Descending Salt Lake Center
Thu 12:08:54 AM 40.6344 -112.0461 156° South 219 252 8,200 -1,173 Descending Salt Lake Center
Thu 12:10:00 AM 40.6514 -111.9783 72° East 167 192 7,000 -1,190 Descending Salt Lake Center
Thu 12:10:55 AM 40.6872 -111.9633 18° North 159 183 5,800 -1,046 Descending Salt Lake Center
Thu 12:11:49 AM 40.7261 -111.9642 359° North 153 176 5,100 -783 Descending Salt Lake Center
Thu 12:12:50 AM 40.7692 -111.9639 360° North 155 178 4,300 -787 Descending Salt Lake Center
Thu 12:14:00 AM 40.7833 -111.9667 349° North  Level FlightAware Approximate
Thu 12:21:00 AM 40.7884 -111.9778 349° North  Level Estimated

Login

Don't have an account? Register now (free) for customized features, flight alerts, and more!